Time;durP1;ratioP1;P1;durP2;ratioP2;P2;SDS_P1;SDS_P2;PMS_P1;PMS_P2;Temp;Humidity;BMP_temperature;BMP_pressure;BME280_temperature;BME280_humidity;BME280_pressure;Samples;Min_cycle;Max_cycle;Signal;HPM_P1;HPM_P2
2021/09/20 00:00:40;;;;;;;1.67;0.60;;;;;;;10.29;100.00;93054.72;2118761;27;20399;-78
2021/09/20 00:01:42;;;;;;;0.60;0.60;;;;;;;10.24;100.00;93053.31;2115797;28;20031;-81
2021/09/20 00:02:44;;;;;;;0.60;0.57;;;;;;;10.28;100.00;93051.31;2116103;27;20031;-81
2021/09/20 00:03:50;;;;;;;1.48;0.57;;;;;;;10.30;100.00;93050.88;2119429;27;20121;-79
2021/09/20 00:04:51;;;;;;;4.32;0.60;;;;;;;10.35;100.00;93053.06;2118701;27;20031;-81
2021/09/20 00:05:53;;;;;;;4.15;0.73;;;;;;;10.39;100.00;93048.41;2107235;28;20552;-82
2021/09/20 00:06:55;;;;;;;2.17;0.50;;;;;;;10.34;100.00;93051.56;2110161;28;20035;-80
2021/09/20 00:07:56;;;;;;;1.05;0.68;;;;;;;10.34;100.00;93046.97;2105337;28;20040;-81
2021/09/20 00:08:57;;;;;;;10.00;0.85;;;;;;;10.35;100.00;93047.72;2115631;27;20399;-82
2021/09/20 00:09:58;;;;;;;0.60;0.50;;;;;;;10.30;100.00;93050.88;2115891;28;20027;-81
2021/09/20 00:10:59;;;;;;;13.75;0.77;;;;;;;10.36;100.00;93048.47;2124221;27;20030;-81
2021/09/20 00:12:01;;;;;;;1.13;0.63;;;;;;;10.38;100.00;93054.91;2120680;27;20394;-81
2021/09/20 00:13:02;;;;;;;1.00;0.60;;;;;;;10.33;100.00;93045.47;2126607;27;20050;-80
2021/09/20 00:14:04;;;;;;;4.53;0.57;;;;;;;10.35;100.00;93058.41;2123697;27;20114;-84
2021/09/20 00:15:07;;;;;;;1.10;0.73;;;;;;;10.31;100.00;93050.47;2115587;28;20499;-82
2021/09/20 00:16:09;;;;;;;3.30;0.63;;;;;;;10.34;100.00;93057.66;2101619;28;20028;-82
2021/09/20 00:17:10;;;;;;;0.95;0.70;;;;;;;10.32;100.00;93051.25;2115160;28;20048;-81
2021/09/20 00:18:12;;;;;;;5.75;0.70;;;;;;;10.31;100.00;93052.38;2115239;28;20046;-79
2021/09/20 00:19:13;;;;;;;2.45;0.70;;;;;;;10.34;100.00;93051.56;2102908;28;20030;-80
2021/09/20 00:20:14;;;;;;;2.10;0.68;;;;;;;10.30;100.00;93056.22;2108217;28;20024;-80
2021/09/20 00:21:17;;;;;;;3.80;0.70;;;;;;;10.30;100.00;93051.63;2106942;28;20024;-79
2021/09/20 00:22:18;;;;;;;0.60;0.60;;;;;;;10.34;100.00;93054.97;2098300;28;20020;-82
2021/09/20 00:23:19;;;;;;;0.60;0.60;;;;;;;10.34;100.00;93056.91;2108184;28;20023;-84
2021/09/20 00:24:20;;;;;;;0.75;0.60;;;;;;;10.35;100.00;93058.41;2123097;27;20027;-84
2021/09/20 00:25:22;;;;;;;0.70;0.70;;;;;;;10.31;100.00;93055.06;2112514;28;20042;-81
2021/09/20 00:26:23;;;;;;;2.75;0.80;;;;;;;10.34;100.00;93057.66;2111423;28;20042;-84
2021/09/20 00:27:24;;;;;;;2.45;1.10;;;;;;;10.34;100.00;93054.22;2109567;28;20020;-83
2021/09/20 00:28:26;;;;;;;4.78;0.70;;;;;;;10.33;100.00;93044.72;2098442;28;20435;-82
2021/09/20 00:29:27;;;;;;;0.50;0.50;;;;;;;10.33;100.00;93055.41;2097927;28;20035;-86
2021/09/20 00:30:29;;;;;;;5.57;0.80;;;;;;;10.34;100.00;93052.31;2111616;28;20024;-82
2021/09/20 00:31:30;;;;;;;6.72;0.80;;;;;;;10.38;100.00;93051.50;2117079;27;20027;-78
2021/09/20 00:32:31;;;;;;;9.00;0.73;;;;;;;10.37;100.00;93055.34;2116982;27;20019;-85
2021/09/20 00:33:32;;;;;;;5.63;0.68;;;;;;;10.33;100.00;93053.50;2123300;27;20112;-81
2021/09/20 00:34:34;;;;;;;2.47;0.95;;;;;;;10.34;100.00;93051.56;2117376;27;20023;-81
2021/09/20 00:35:37;;;;;;;1.50;0.70;;;;;;;10.34;100.00;93056.91;2111253;27;20024;-82
2021/09/20 00:36:38;;;;;;;0.98;0.77;;;;;;;10.31;100.00;93057.72;2115158;28;20027;-80
2021/09/20 00:37:40;;;;;;;0.82;0.82;;;;;;;10.42;100.00;93052.91;2112850;27;20492;-80
2021/09/20 00:38:42;;;;;;;3.13;0.70;;;;;;;10.34;100.00;93059.56;2120379;27;20057;-83
2021/09/20 00:39:43;;;;;;;0.70;0.70;;;;;;;10.34;100.00;93054.97;2120415;27;20022;-81
2021/09/20 00:40:44;;;;;;;3.53;0.90;;;;;;;10.30;100.00;93058.91;2122304;27;20089;-81
2021/09/20 00:41:46;;;;;;;3.55;0.93;;;;;;;10.33;100.00;93052.75;2106877;28;20020;-86
2021/09/20 00:42:47;;;;;;;3.95;0.73;;;;;;;10.33;100.00;93060.75;2107206;28;20089;-79
2021/09/20 00:43:48;;;;;;;5.95;0.90;;;;;;;10.34;100.00;93056.91;2110480;27;20089;-82
2021/09/20 00:44:49;;;;;;;2.45;0.95;;;;;;;10.39;100.00;93059.09;2110591;28;20024;-79
2021/09/20 00:45:51;;;;;;;1.10;0.60;;;;;;;10.38;100.00;93059.50;2100465;28;20493;-84
2021/09/20 00:46:52;;;;;;;1.30;1.08;;;;;;;10.33;100.00;93058.81;2101072;28;20161;-80
2021/09/20 00:47:54;;;;;;;0.85;0.80;;;;;;;10.31;100.00;93053.13;2108449;28;20110;-80
2021/09/20 00:48:55;;;;;;;1.90;1.00;;;;;;;10.37;100.00;93056.09;2118408;27;20019;-82
2021/09/20 00:49:56;;;;;;;2.28;0.98;;;;;;;10.29;100.00;93055.47;2108802;28;20089;-86
2021/09/20 00:50:58;;;;;;;3.92;1.02;;;;;;;10.31;100.00;93052.38;2110719;28;20637;-78
2021/09/20 00:51:59;;;;;;;1.17;1.08;;;;;;;10.27;100.00;93057.81;2110170;28;20081;-82
2021/09/20 00:53:00;;;;;;;9.15;1.27;;;;;;;10.27;100.00;93059.72;2110915;28;20024;-82
2021/09/20 00:54:01;;;;;;;0.90;0.90;;;;;;;10.30;100.00;93061.56;2109430;28;20031;-79
2021/09/20 00:55:05;;;;;;;9.00;0.98;;;;;;;10.32;100.00;93060.00;2110212;28;20449;-80
2021/09/20 00:56:07;;;;;;;0.73;0.70;;;;;;;10.32;100.00;93057.34;2115412;27;20392;-81
2021/09/20 00:57:10;;;;;;;2.88;1.13;;;;;;;10.32;100.00;93056.59;2102198;28;20475;-79
2021/09/20 00:58:13;;;;;;;3.95;0.65;;;;;;;10.32;100.00;93053.91;2101771;28;20024;-84
2021/09/20 00:59:16;;;;;;;1.20;0.95;;;;;;;10.28;100.00;93053.97;2118996;27;20118;-80
2021/09/20 01:00:17;;;;;;;0.80;0.80;;;;;;;10.24;100.00;93053.31;2109819;28;20027;-83
2021/09/20 01:01:20;;;;;;;3.33;0.88;;;;;;;10.29;100.00;93057.41;2093735;28;20073;-82
2021/09/20 01:02:22;;;;;;;6.05;0.90;;;;;;;10.31;100.00;93052.38;2108979;27;20019;-81
2021/09/20 01:03:25;;;;;;;0.98;0.70;;;;;;;10.26;100.00;93056.31;2119823;27;20015;-81
2021/09/20 01:04:26;;;;;;;0.70;0.60;;;;;;;10.29;100.00;93055.47;2119757;27;20441;-81
2021/09/20 01:05:27;;;;;;;2.13;0.80;;;;;;;10.27;100.00;93052.47;2118394;27;20038;-78
2021/09/20 01:06:28;;;;;;;0.75;0.75;;;;;;;10.33;100.00;93055.41;2117305;27;20019;-79
2021/09/20 01:07:29;;;;;;;0.52;0.52;;;;;;;10.32;100.00;93053.91;2116065;27;20023;-82
2021/09/20 01:08:32;;;;;;;1.15;0.60;;;;;;;10.34;100.00;93054.22;2108332;28;20026;-81
2021/09/20 01:09:38;;;;;;;1.05;0.70;;;;;;;10.36;100.00;93057.25;2111610;28;20047;-82
2021/09/20 01:10:40;;;;;;;2.65;0.50;;;;;;;10.33;100.00;93053.50;2093583;28;20036;-79
2021/09/20 01:11:43;;;;;;;0.93;0.80;;;;;;;10.30;100.00;93064.25;2101614;28;20070;-83
2021/09/20 01:12:44;;;;;;;2.90;0.70;;;;;;;10.32;100.00;93059.25;2108258;27;20036;-81
2021/09/20 01:13:46;;;;;;;4.28;0.70;;;;;;;10.30;100.00;93062.31;2124011;27;20491;-81
2021/09/20 01:14:48;;;;;;;1.00;0.50;;;;;;;10.31;100.00;93061.16;2123414;27;20026;-80
2021/09/20 01:15:53;;;;;;;5.68;0.80;;;;;;;10.30;100.00;93065.00;2118387;27;20030;-83
2021/09/20 01:16:54;;;;;;;1.48;0.60;;;;;;;10.24;100.00;93069.34;2103842;28;20350;-78
2021/09/20 01:17:55;;;;;;;0.57;0.57;;;;;;;10.21;100.00;93064.78;2103084;28;20027;-83
2021/09/20 01:18:56;;;;;;;5.20;0.90;;;;;;;10.25;100.00;93064.75;2107817;28;20097;-79
2021/09/20 01:19:59;;;;;;;0.52;0.52;;;;;;;10.27;100.00;93067.72;2115047;28;20503;-80
2021/09/20 01:21:02;;;;;;;1.75;0.75;;;;;;;10.27;100.00;93068.50;2111045;28;20069;-84
2021/09/20 01:22:16;;;;;;;1.30;0.50;;;;;;;10.31;100.00;93073.75;2118436;27;20776;-82
2021/09/20 01:23:19;;;;;;;0.70;0.63;;;;;;;10.34;100.00;93067.59;2115361;27;20042;-83
2021/09/20 01:24:20;;;;;;;0.50;0.50;;;;;;;10.46;100.00;93060.84;2111548;28;20034;-80
2021/09/20 01:25:21;;;;;;;1.38;0.70;;;;;;;10.43;100.00;93067.78;2120728;27;20023;-82
2021/09/20 01:26:22;;;;;;;0.93;0.70;;;;;;;10.41;100.00;93070.13;2119132;27;20015;-81
2021/09/20 01:27:24;;;;;;;3.53;0.70;;;;;;;10.38;100.00;93070.19;2097019;28;20112;-80
2021/09/20 01:28:25;;;;;;;1.13;0.63;;;;;;;10.41;100.00;93067.44;2088451;28;20032;-80
2021/09/20 01:29:27;;;;;;;1.10;0.70;;;;;;;10.44;100.00;93063.94;2091590;28;20021;-79
2021/09/20 01:30:31;;;;;;;0.68;0.60;;;;;;;10.47;100.00;93065.03;2098221;28;20048;-83
2021/09/20 01:31:32;;;;;;;2.70;0.70;;;;;;;10.43;100.00;93072.38;2119340;27;20030;-82
2021/09/20 01:32:33;;;;;;;0.63;0.50;;;;;;;10.39;100.00;93064.44;2120932;27;20022;-80
2021/09/20 01:33:35;;;;;;;0.70;0.68;;;;;;;10.33;100.00;93069.50;2106037;28;20020;-82
2021/09/20 01:34:36;;;;;;;0.55;0.50;;;;;;;10.36;100.00;93067.94;2109002;28;20073;-81
2021/09/20 01:35:37;;;;;;;1.95;0.60;;;;;;;10.45;100.00;93068.13;2089789;28;20497;-80
2021/09/20 01:36:38;;;;;;;0.60;0.50;;;;;;;10.46;100.00;93066.94;2095704;28;20024;-81
2021/09/20 01:37:40;;;;;;;0.68;0.57;;;;;;;10.48;100.00;93067.28;2107540;28;20098;-80
2021/09/20 01:38:41;;;;;;;1.02;0.50;;;;;;;10.44;100.00;93060.50;2119345;27;20119;-80
2021/09/20 01:39:42;;;;;;;1.75;0.60;;;;;;;10.47;100.00;93060.44;2115223;27;20480;-82
2021/09/20 01:40:45;;;;;;;0.98;0.50;;;;;;;10.50;100.00;93066.88;2089843;28;20025;-83
2021/09/20 01:41:48;;;;;;;0.80;0.60;;;;;;;10.46;100.00;93063.53;2098597;28;20025;-79
2021/09/20 01:42:50;;;;;;;1.45;0.68;;;;;;;10.47;100.00;93065.03;2116661;27;20153;-84
2021/09/20 01:43:51;;;;;;;1.10;0.50;;;;;;;10.49;100.00;93063.47;2097850;28;20380;-80
2021/09/20 01:44:52;;;;;;;0.60;0.60;;;;;;;10.47;100.00;93067.69;2104345;28;20024;-79
2021/09/20 01:45:53;;;;;;;2.33;0.50;;;;;;;10.45;100.00;93057.44;2108014;28;20103;-84
2021/09/20 01:46:56;;;;;;;3.45;0.70;;;;;;;10.58;100.00;93063.63;2106895;27;20024;-82
2021/09/20 01:47:57;;;;;;;2.40;0.75;;;;;;;10.48;100.00;93069.94;2114301;27;20032;-82
2021/09/20 01:49:01;;;;;;;4.63;0.70;;;;;;;10.46;100.00;93053.59;2114752;28;20023;-81
2021/09/20 01:50:10;;;;;;;0.90;0.55;;;;;;;10.39;100.00;93067.09;2119653;27;20021;-82
2021/09/20 01:51:13;;;;;;;1.17;0.85;;;;;;;10.47;100.00;93059.69;2120831;27;20039;-81
2021/09/20 01:52:14;;;;;;;0.60;0.55;;;;;;;10.45;100.00;93068.13;2115278;28;20030;-80
2021/09/20 01:53:16;;;;;;;2.00;0.63;;;;;;;10.39;100.00;93064.44;2114222;28;20019;-81
2021/09/20 01:54:18;;;;;;;1.73;0.60;;;;;;;10.36;100.00;93072.50;2116721;28;20030;-83
2021/09/20 01:55:20;;;;;;;1.55;0.80;;;;;;;10.44;100.00;93065.84;2106042;28;20028;-83
2021/09/20 01:56:21;;;;;;;0.80;0.80;;;;;;;10.45;100.00;93068.13;2109786;28;20519;-82
2021/09/20 01:57:23;;;;;;;2.08;0.82;;;;;;;10.44;100.00;93065.84;2105096;28;20078;-84
2021/09/20 01:58:25;;;;;;;2.15;0.73;;;;;;;10.42;100.00;93070.88;2098723;28;20419;-85
2021/09/20 01:59:27;;;;;;;1.73;0.90;;;;;;;10.44;100.00;93069.28;2106328;28;20095;-82
2021/09/20 02:00:29;;;;;;;2.75;0.77;;;;;;;10.44;100.00;93071.19;2108396;28;20031;-84
2021/09/20 02:01:30;;;;;;;2.22;0.60;;;;;;;10.45;100.00;93068.13;2101074;28;20020;-78
2021/09/20 02:02:32;;;;;;;0.90;0.52;;;;;;;10.45;100.00;93068.13;2098021;28;20020;-80
2021/09/20 02:03:35;;;;;;;0.80;0.52;;;;;;;10.50;100.00;93064.94;2106651;28;20031;-80
2021/09/20 02:04:36;;;;;;;2.85;0.70;;;;;;;10.45;100.00;93065.44;2109758;28;20031;-80
2021/09/20 02:07:29;;;;;;;0.50;0.50;;;;;;;10.50;100.00;93066.88;2133562;27;20195;-82
2021/09/20 02:08:30;;;;;;;1.40;0.73;;;;;;;10.45;100.00;93068.13;2121115;27;20099;-83
2021/09/20 02:09:33;;;;;;;1.90;0.82;;;;;;;10.39;100.00;93064.44;2109175;28;20028;-79
2021/09/20 02:10:34;;;;;;;1.15;0.65;;;;;;;10.41;100.00;93067.44;2113921;28;20066;-82
2021/09/20 02:11:35;;;;;;;0.65;0.50;;;;;;;10.47;100.00;93071.13;2121458;27;20129;-84
2021/09/20 02:12:37;;;;;;;0.90;0.60;;;;;;;10.58;100.00;93073.56;2120402;28;20109;-80
2021/09/20 02:13:38;;;;;;;1.23;0.60;;;;;;;10.55;100.00;93069.06;2096637;28;20033;-80
2021/09/20 02:14:39;;;;;;;1.23;0.70;;;;;;;10.58;100.00;93077.00;2105087;28;20017;-82
2021/09/20 02:15:40;;;;;;;3.30;0.88;;;;;;;10.52;100.00;93073.28;2121821;28;20027;-83
2021/09/20 02:16:42;;;;;;;0.70;0.70;;;;;;;10.48;100.00;93064.59;2115444;28;20015;-83
2021/09/20 02:17:43;;;;;;;1.25;0.80;;;;;;;10.47;100.00;93067.69;2114508;28;20031;-86
2021/09/20 02:18:44;;;;;;;3.50;0.75;;;;;;;10.41;100.00;93061.34;2113393;28;20107;-82
2021/09/20 02:19:45;;;;;;;0.70;0.70;;;;;;;10.50;100.00;93064.94;2121904;28;20015;-80
2021/09/20 02:20:46;;;;;;;0.95;0.85;;;;;;;10.57;100.00;93064.78;2121784;28;20731;-82
2021/09/20 02:21:48;;;;;;;3.10;0.90;;;;;;;10.48;100.00;93069.94;2105028;28;20487;-81
2021/09/20 02:22:51;;;;;;;0.70;0.70;;;;;;;10.43;100.00;93067.03;2104906;28;20028;-80
2021/09/20 02:23:52;;;;;;;1.20;1.10;;;;;;;10.41;100.00;93066.69;2105371;28;20024;-81
2021/09/20 02:24:58;;;;;;;0.75;0.75;;;;;;;10.37;100.00;93066.03;2107273;28;20048;-80
2021/09/20 02:26:00;;;;;;;1.85;1.08;;;;;;;10.55;100.00;93063.72;2109901;28;20020;-81
2021/09/20 02:27:02;;;;;;;6.07;1.17;;;;;;;10.45;100.00;93065.44;2110061;28;20058;-82
2021/09/20 02:28:03;;;;;;;1.15;0.90;;;;;;;10.42;100.00;93060.19;2113426;28;20108;-81
2021/09/20 02:29:06;;;;;;;1.20;1.13;;;;;;;10.45;100.00;93064.69;2113539;28;20050;-81
2021/09/20 02:30:08;;;;;;;1.38;0.93;;;;;;;10.45;100.00;93064.69;2121713;28;20080;-82
2021/09/20 02:31:10;;;;;;;1.10;0.82;;;;;;;10.43;100.00;93067.78;2119668;28;20049;-79
2021/09/20 02:32:11;;;;;;;1.13;1.02;;;;;;;10.32;100.00;93068.00;2105017;28;20032;-80
2021/09/20 02:33:12;;;;;;;0.80;0.80;;;;;;;10.36;100.00;93062.59;2110188;28;20015;-79
2021/09/20 02:34:14;;;;;;;0.90;0.80;;;;;;;10.40;100.00;93065.19;2113271;28;20461;-82
2021/09/20 02:35:17;;;;;;;1.48;1.10;;;;;;;10.29;100.00;93065.41;2105731;28;20550;-82
2021/09/20 02:36:19;;;;;;;5.22;1.40;;;;;;;10.31;100.00;93066.50;2121660;28;20019;-80
2021/09/20 02:37:20;;;;;;;1.33;1.20;;;;;;;10.28;100.00;93064.66;2117498;28;20469;-82
2021/09/20 02:38:21;;;;;;;1.25;1.15;;;;;;;10.37;100.00;93066.78;2119465;28;20023;-82
2021/09/20 02:39:22;;;;;;;2.47;1.10;;;;;;;10.28;100.00;93059.31;2120833;28;20031;-81
2021/09/20 02:40:24;;;;;;;2.58;1.35;;;;;;;10.34;100.00;93064.91;2096661;28;20453;-83
2021/09/20 02:41:25;;;;;;;1.58;1.00;;;;;;;10.38;100.00;93062.94;2107707;28;20069;-82
2021/09/20 02:42:28;;;;;;;1.20;1.10;;;;;;;10.36;100.00;93067.94;2106203;28;20629;-81
2021/09/20 02:43:30;;;;;;;1.25;1.05;;;;;;;10.44;100.00;93063.19;2103301;28;20021;-78
2021/09/20 02:44:31;;;;;;;1.98;0.90;;;;;;;10.41;100.00;93064.78;2107403;28;20845;-81
2021/09/20 02:45:33;;;;;;;2.15;1.05;;;;;;;10.36;100.00;93064.50;2113148;28;20150;-83
2021/09/20 02:46:34;;;;;;;1.13;1.02;;;;;;;10.33;100.00;93058.06;2110284;28;20511;-79
2021/09/20 02:47:36;;;;;;;2.00;1.13;;;;;;;10.21;100.00;93056.78;2113248;28;20043;-78
2021/09/20 02:48:37;;;;;;;1.27;0.90;;;;;;;10.27;100.00;93057.81;2104904;28;20035;-80
2021/09/20 02:49:39;;;;;;;1.20;1.10;;;;;;;10.32;100.00;93059.25;2108201;28;20107;-79
2021/09/20 02:50:41;;;;;;;1.20;1.10;;;;;;;10.26;100.00;93066.25;2121512;28;20016;-81
2021/09/20 02:51:43;;;;;;;3.42;1.00;;;;;;;10.34;100.00;93056.91;2110253;28;20068;-81
2021/09/20 02:52:44;;;;;;;1.42;1.00;;;;;;;10.23;100.00;93056.38;2113120;28;20023;-80
2021/09/20 02:53:45;;;;;;;1.60;0.80;;;;;;;10.22;100.00;93063.59;2121564;28;20015;-84
2021/09/20 02:54:46;;;;;;;4.22;1.85;;;;;;;10.25;100.00;93062.81;2121484;28;20023;-83
2021/09/20 02:55:47;;;;;;;1.92;1.05;;;;;;;10.27;100.00;93059.72;2113232;28;20032;-80
2021/09/20 02:56:48;;;;;;;5.57;1.00;;;;;;;10.24;100.00;93063.22;2112972;28;20614;-79
2021/09/20 02:57:49;;;;;;;0.90;0.90;;;;;;;10.34;100.00;93060.31;2104524;28;20086;-81
2021/09/20 02:58:51;;;;;;;1.20;1.10;;;;;;;10.28;100.00;93059.31;2111957;28;20464;-83
2021/09/20 02:59:53;;;;;;;1.05;1.00;;;;;;;10.26;100.00;93058.97;2118458;28;20545;-84
2021/09/20 03:00:54;;;;;;;1.42;1.15;;;;;;;10.28;100.00;93067.34;2111864;28;20032;-80
2021/09/20 03:01:55;;;;;;;1.92;1.00;;;;;;;10.29;100.00;93057.41;2119008;28;20371;-78
2021/09/20 03:02:57;;;;;;;0.90;0.90;;;;;;;10.33;100.00;93066.09;2113376;28;20028;-82
2021/09/20 03:03:58;;;;;;;2.38;0.73;;;;;;;10.24;100.00;93061.31;2120833;28;20030;-82
2021/09/20 03:04:59;;;;;;;1.45;1.00;;;;;;;10.18;100.00;93062.19;2104569;28;20032;-78
2021/09/20 03:06:01;;;;;;;0.90;0.90;;;;;;;10.21;100.00;93066.69;2112871;28;20027;-84
2021/09/20 03:07:03;;;;;;;1.35;0.80;;;;;;;10.23;100.00;93056.38;2123943;27;20016;-84
2021/09/20 03:08:05;;;;;;;3.60;1.67;;;;;;;10.25;100.00;93065.50;2110543;28;20056;-81
2021/09/20 03:09:07;;;;;;;1.77;0.80;;;;;;;10.16;100.00;93065.28;2113310;28;20076;-80
2021/09/20 03:10:10;;;;;;;3.00;1.38;;;;;;;10.23;100.00;93069.72;2117403;28;20090;-82
2021/09/20 03:11:13;;;;;;;1.88;0.90;;;;;;;10.24;100.00;93065.88;2112606;28;20096;-82
2021/09/20 03:12:14;;;;;;;3.53;1.20;;;;;;;10.25;100.00;93062.81;2104454;28;20432;-84
2021/09/20 03:13:15;;;;;;;0.70;0.70;;;;;;;10.27;100.00;93065.06;2096250;28;20890;-82
2021/09/20 03:14:17;;;;;;;0.98;0.90;;;;;;;10.22;100.00;93070.88;2104554;28;20031;-80
2021/09/20 03:15:19;;;;;;;0.70;0.70;;;;;;;10.27;100.00;93065.84;2106430;28;20020;-79
2021/09/20 03:16:20;;;;;;;1.73;0.88;;;;;;;10.34;100.00;93065.66;2119900;28;20055;-79
2021/09/20 03:17:21;;;;;;;2.55;0.90;;;;;;;10.30;100.00;93070.34;2104137;28;20104;-82
2021/09/20 03:18:24;;;;;;;1.10;0.98;;;;;;;10.38;100.00;93072.88;2103779;28;20028;-84
2021/09/20 03:19:26;;;;;;;1.02;0.82;;;;;;;10.31;100.00;93073.75;2116339;28;20814;-86
2021/09/20 03:20:28;;;;;;;1.08;0.98;;;;;;;10.31;100.00;93071.84;2114132;28;20119;-82
2021/09/20 03:21:29;;;;;;;1.33;0.93;;;;;;;10.34;100.00;93067.59;2105016;28;20027;-79
2021/09/20 03:22:30;;;;;;;0.65;0.65;;;;;;;10.31;100.00;93077.19;2101856;28;20074;-80
2021/09/20 03:23:32;;;;;;;3.58;0.77;;;;;;;10.27;100.00;93075.75;2107559;28;20027;-81
2021/09/20 03:24:33;;;;;;;1.30;0.60;;;;;;;10.26;100.00;93072.31;2116243;28;20027;-81
2021/09/20 03:25:34;;;;;;;1.20;0.80;;;;;;;10.23;100.00;93070.47;2112388;28;20019;-80
2021/09/20 03:26:36;;;;;;;0.80;0.80;;;;;;;10.25;100.00;93070.09;2103849;28;20028;-80
2021/09/20 03:27:38;;;;;;;1.00;0.90;;;;;;;10.27;100.00;93073.06;2107507;28;20031;-83
2021/09/20 03:28:39;;;;;;;1.77;0.77;;;;;;;10.27;100.00;93073.84;2123525;27;20019;-79
2021/09/20 03:29:40;;;;;;;0.82;0.75;;;;;;;10.29;100.00;93074.19;2109287;28;20106;-84
2021/09/20 03:30:42;;;;;;;0.68;0.68;;;;;;;10.30;100.00;93069.59;2106816;28;20537;-82
2021/09/20 03:31:44;;;;;;;1.20;0.95;;;;;;;10.27;100.00;93067.72;2107286;28;20118;-82
2021/09/20 03:32:46;;;;;;;3.80;0.98;;;;;;;10.35;100.00;93077.09;2115728;28;20020;-81
2021/09/20 03:33:47;;;;;;;0.80;0.80;;;;;;;10.38;100.00;93075.53;2115508;28;20408;-82
2021/09/20 03:34:48;;;;;;;0.77;0.73;;;;;;;10.53;100.00;93080.13;2111133;28;20028;-79
2021/09/20 03:35:49;;;;;;;2.00;0.90;;;;;;;10.42;100.00;93076.97;2124394;27;20034;-82
2021/09/20 03:36:50;;;;;;;0.73;0.73;;;;;;;10.43;100.00;93078.47;2121064;27;20018;-81
2021/09/20 03:37:51;;;;;;;0.65;0.65;;;;;;;10.47;100.00;93073.03;2108474;28;20071;-81
2021/09/20 03:38:54;;;;;;;1.00;0.90;;;;;;;10.49;100.00;93074.16;2098791;28;20047;-81
2021/09/20 03:39:55;;;;;;;1.00;1.00;;;;;;;10.57;100.00;93069.38;2098942;28;20080;-82
2021/09/20 03:40:56;;;;;;;0.82;0.82;;;;;;;10.49;100.00;93070.69;2098851;28;20032;-81
2021/09/20 03:41:58;;;;;;;2.97;1.10;;;;;;;10.41;100.00;93072.78;2096086;28;20012;-82
2021/09/20 03:42:59;;;;;;;3.08;1.00;;;;;;;10.46;100.00;93071.53;2099284;28;20107;-80
2021/09/20 03:44:00;;;;;;;1.13;1.02;;;;;;;10.36;100.00;93072.50;2102654;28;20388;-83
2021/09/20 03:45:02;;;;;;;1.23;1.15;;;;;;;10.41;100.00;93069.38;2106109;28;20044;-81
2021/09/20 03:46:03;;;;;;;1.17;1.17;;;;;;;10.41;100.00;93069.38;2099843;28;20123;-82
2021/09/20 03:47:05;;;;;;;1.33;1.23;;;;;;;10.34;100.00;93071.00;2107185;28;20027;-79
2021/09/20 03:48:07;;;;;;;1.55;1.27;;;;;;;10.36;100.00;93072.50;2115422;28;20043;-79
2021/09/20 03:49:09;;;;;;;1.88;1.17;;;;;;;10.37;100.00;93074.03;2120669;27;20076;-82
2021/09/20 03:50:11;;;;;;;2.92;1.15;;;;;;;10.32;100.00;93068.00;2107752;28;20020;-81
2021/09/20 03:51:12;;;;;;;1.20;1.10;;;;;;;10.32;100.00;93069.94;2107054;28;20048;-83
2021/09/20 03:52:16;;;;;;;7.32;1.45;;;;;;;10.33;100.00;93074.84;2106710;28;20020;-80
2021/09/20 03:53:20;;;;;;;0.93;0.93;;;;;;;10.34;100.00;93079.03;2103158;28;20024;-80
2021/09/20 03:54:21;;;;;;;0.75;0.75;;;;;;;10.36;100.00;93083.19;2106396;28;20107;-81
2021/09/20 03:55:22;;;;;;;1.60;1.40;;;;;;;10.38;100.00;93070.19;2109476;28;20020;-81
2021/09/20 03:56:23;;;;;;;1.88;1.27;;;;;;;10.32;100.00;93073.38;2100951;28;20024;-82
2021/09/20 03:57:25;;;;;;;1.00;1.00;;;;;;;10.33;100.00;93074.84;2100863;28;20020;-81
2021/09/20 03:58:26;;;;;;;1.55;1.45;;;;;;;10.43;100.00;93078.47;2107176;28;20051;-83
2021/09/20 03:59:27;;;;;;;1.42;1.33;;;;;;;10.34;100.00;93079.03;2115390;28;20518;-80
2021/09/20 04:00:29;;;;;;;1.33;1.23;;;;;;;10.36;100.00;93078.63;2105498;28;20035;-81
2021/09/20 04:01:30;;;;;;;1.52;1.42;;;;;;;10.40;100.00;93075.88;2107110;28;20158;-80
2021/09/20 04:02:32;;;;;;;1.80;1.70;;;;;;;10.58;100.00;93073.56;2115977;27;20473;-81
2021/09/20 04:03:33;;;;;;;1.83;1.58;;;;;;;10.64;100.00;93084.50;2105515;28;20051;-81
2021/09/20 04:04:34;;;;;;;3.25;1.48;;;;;;;10.56;100.00;93076.66;2087879;28;20056;-82
2021/09/20 04:05:36;;;;;;;1.67;1.58;;;;;;;10.46;100.00;93074.97;2094155;28;20408;-82
2021/09/20 04:06:37;;;;;;;1.67;1.58;;;;;;;10.43;100.00;93083.81;2102796;28;20032;-80
2021/09/20 04:07:39;;;;;;;1.77;1.67;;;;;;;10.46;100.00;93079.56;2102236;28;20082;-81
2021/09/20 04:08:40;;;;;;;2.17;1.70;;;;;;;10.57;100.00;93085.41;2101323;28;20031;-82
2021/09/20 04:09:42;;;;;;;3.03;1.83;;;;;;;10.40;100.00;93079.28;2100498;28;20505;-82
2021/09/20 04:10:43;;;;;;;1.52;1.42;;;;;;;10.44;100.00;93087.97;2101568;28;20027;-81
2021/09/20 04:11:44;;;;;;;3.15;1.63;;;;;;;10.37;100.00;93082.81;2104369;28;20033;-80
2021/09/20 04:12:45;;;;;;;2.83;2.22;;;;;;;10.39;100.00;93085.81;2108507;28;20057;-82
2021/09/20 04:13:46;;;;;;;2.10;1.80;;;;;;;10.41;100.00;93082.72;2101694;28;20370;-83
2021/09/20 04:14:47;;;;;;;2.30;1.77;;;;;;;10.42;100.00;93086.91;2104714;28;20024;-81
2021/09/20 04:15:53;;;;;;;1.90;1.80;;;;;;;10.33;100.00;93087.47;2102011;28;20552;-80
2021/09/20 04:16:54;;;;;;;2.20;2.00;;;;;;;10.34;100.00;93096.97;2090345;28;20017;-85
2021/09/20 04:17:55;;;;;;;2.33;2.13;;;;;;;10.37;100.00;93087.41;2106684;28;20449;-79
2021/09/20 04:18:56;;;;;;;2.25;2.08;;;;;;;10.40;100.00;93086.56;2119898;27;20093;-81
2021/09/20 04:19:57;;;;;;;2.60;2.40;;;;;;;10.36;100.00;93086.66;2112701;28;20031;-84
2021/09/20 04:20:58;;;;;;;2.45;2.25;;;;;;;10.38;100.00;93089.66;2105543;28;20450;-80
2021/09/20 04:22:00;;;;;;;2.58;2.38;;;;;;;10.34;100.00;93089.72;2112753;28;20794;-81
2021/09/20 04:23:01;;;;;;;2.58;2.38;;;;;;;10.36;100.00;93092.00;2108633;28;20496;-81
2021/09/20 04:24:02;;;;;;;2.00;1.90;;;;;;;10.37;100.00;93096.16;2103514;28;20030;-81
2021/09/20 04:25:04;;;;;;;3.65;2.10;;;;;;;10.32;100.00;93092.06;2103734;28;20025;-85
2021/09/20 04:26:05;;;;;;;2.13;1.90;;;;;;;10.32;100.00;93097.41;2110513;28;20677;-85
2021/09/20 04:27:06;;;;;;;2.42;2.22;;;;;;;10.34;100.00;93088.97;2110755;28;20028;-79
2021/09/20 04:28:07;;;;;;;2.33;2.05;;;;;;;10.32;100.00;93094.72;2108963;28;20596;-79
2021/09/20 04:29:08;;;;;;;2.65;1.90;;;;;;;10.30;100.00;93097.06;2110615;27;20036;-85
2021/09/20 04:30:10;;;;;;;2.38;2.17;;;;;;;10.34;100.00;93091.63;2107753;28;20392;-79
2021/09/20 04:31:11;;;;;;;2.33;2.13;;;;;;;10.36;100.00;93092.00;2114699;28;20029;-82
2021/09/20 04:32:12;;;;;;;2.55;2.35;;;;;;;10.29;100.00;93095.56;2109232;28;20024;-82
2021/09/20 04:33:18;;;;;;;1.95;1.83;;;;;;;10.32;100.00;93100.06;2110353;27;20094;-84
2021/09/20 04:34:19;;;;;;;5.50;2.20;;;;;;;10.33;100.00;93092.81;2107536;28;20012;-84
2021/09/20 04:35:20;;;;;;;2.55;2.35;;;;;;;10.35;100.00;93090.47;2107077;28;20020;-81
2021/09/20 04:36:21;;;;;;;2.40;2.20;;;;;;;10.36;100.00;93094.66;2109727;28;20024;-82
2021/09/20 04:37:22;;;;;;;2.10;1.98;;;;;;;10.36;100.00;93092.00;2118659;27;20532;-81
2021/09/20 04:38:23;;;;;;;2.30;2.10;;;;;;;10.36;100.00;93094.66;2116569;27;20028;-81
2021/09/20 04:39:24;;;;;;;2.97;2.22;;;;;;;10.40;100.00;93092.66;2109568;28;20022;-82
2021/09/20 04:40:25;;;;;;;2.42;2.22;;;;;;;10.43;100.00;93094.50;2098041;28;20385;-78
2021/09/20 04:41:26;;;;;;;2.05;1.92;;;;;;;10.40;100.00;93086.56;2103177;28;20012;-81
2021/09/20 04:42:27;;;;;;;2.10;1.90;;;;;;;10.35;100.00;93098.47;2100790;28;20047;-79
2021/09/20 04:43:27;;;;;;;1.77;1.67;;;;;;;10.38;100.00;93094.25;2090163;28;20107;-80
2021/09/20 04:44:28;;;;;;;3.08;1.60;;;;;;;10.41;100.00;93096.09;2106866;28;20031;-84
2021/09/20 04:45:29;;;;;;;2.00;1.77;;;;;;;10.46;100.00;93091.00;2106416;28;20039;-80
2021/09/20 04:46:30;;;;;;;1.88;1.77;;;;;;;10.48;100.00;93095.91;2106347;28;20107;-86
2021/09/20 04:47:31;;;;;;;1.60;1.50;;;;;;;10.44;100.00;93092.56;2114923;28;20078;-83
2021/09/20 04:48:32;;;;;;;2.97;1.70;;;;;;;10.31;100.00;93097.81;2124093;27;20042;-79